Date,TemperatureHighF,TemperatureAvgF,TemperatureLowF,DewpointHighF,DewpointAvgF,DewpointLowF,HumidityHigh,HumidityAvg,HumidityLow,PressureMaxIn,PressureMinIn,WindSpeedMaxMPH,WindSpeedAvgMPH,GustSpeedMaxMPH,PrecipitationSumIn
2013-1-1,34,28,21,33,26,16,96,88,79,30.26,30.07,12,5,14,0.01
2013-1-2,30,21,12,18,14,10,92,77,49,30.32,30.24,3,0,5,0.00
2013-1-3,40,26,14,30,21,11,92,84,65,30.43,30.26,7,1,10,0.00
2013-1-4,39,28,19,29,24,18,94,84,64,30.48,30.36,8,1,9,0.00
2013-1-5,40,33,22,35,26,-100,95,82,74,30.37,30.17,10,-28,12,0.00
2013-1-6,40,33,23,35,27,-100,93,82,73,30.41,30.10,14,-17,25,0.00
2013-1-7,42,22,19,31,-14,-100,94,55,63,30.47,30.21,8,-321,13,0.00
2013-1-8,50,30,24,37,-4,-100,94,54,59,30.28,30.17,7,-282,10,0.00
2013-1-9,57,48,42,49,43,38,97,84,66,30.47,30.21,7,2,11,0.24
2013-1-10,58,35,43,57,5,-100,97,65,73,30.46,29.82,8,-280,10,0.24
2013-1-11,61,28,55,53,-27,-100,87,38,73,29.94,29.82,17,-511,24,0.00
2013-1-12,64,26,39,60,-28,-100,96,43,84,29.95,29.68,19,-528,25,2.03
2013-1-13,38,31,24,37,29,19,95,91,82,30.35,29.84,18,9,22,0.43
2013-1-14,28,24,21,22,19,16,88,82,77,30.50,30.35,11,4,13,0.00
2013-1-15,30,26,22,26,23,19,90,85,81,30.40,30.13,6,2,12,0.02
2013-1-16,37,32,28,27,26,24,89,80,64,30.16,30.07,7,3,11,0.02
2013-1-17,43,35,27,37,30,24,91,80,74,30.51,30.14,17,6,23,0.03
2013-1-18,47,35,22,33,28,21,94,76,52,30.54,30.22,15,5,22,0.00
2013-1-19,57,48,37,42,36,27,80,64,50,30.23,29.97,17,8,26,0.00
2013-1-20,45,35,26,38,24,17,84,65,46,30.33,30.09,12,5,17,0.00
2013-1-21,29,25,18,20,13,5,78,61,43,30.40,30.25,16,9,24,0.00
2013-1-22,21,19,15,15,8,1,88,64,48,30.50,30.39,10,4,14,0.00
2013-1-23,43,28,15,26,20,13,91,73,47,30.41,30.16,9,2,18,0.00
2013-1-24,32,26,20,23,14,8,73,60,42,30.61,30.29,12,4,18,0.00
2013-1-25,41,33,28,27,21,9,76,62,43,30.28,30.14,9,2,13,0.00
2013-1-26,40,32,27,27,22,19,84,68,45,30.41,30.23,5,1,11,0.00
2013-1-27,51,37,26,48,34,21,95,89,78,30.35,30.05,14,5,17,0.35
2013-1-28,63,58,50,60,56,47,94,91,85,30.06,29.96,17,8,21,0.05
2013-1-29,70,64,53,63,59,52,94,85,70,29.95,29.36,29,13,43,0.80
2013-1-30,56,44,31,52,41,23,96,86,71,29.90,29.39,19,8,28,0.46
2013-1-31,38,30,17,31,21,6,92,72,61,30.35,29.90,24,9,30,0.00